createdAt,value
2018-09-12T00:00:20.981Z,1009.77
2018-09-12T00:01:01.507Z,1009.74
2018-09-12T00:01:42.032Z,1009.74
2018-09-12T00:02:22.558Z,1009.74
2018-09-12T00:03:03.081Z,1009.72
2018-09-12T00:03:43.623Z,1009.69
2018-09-12T00:04:24.152Z,1009.74
2018-09-12T00:05:04.657Z,1009.69
2018-09-12T00:05:45.171Z,1009.66
2018-09-12T00:06:25.698Z,1009.65
2018-09-12T00:07:06.228Z,1009.67
2018-09-12T00:07:46.729Z,1009.66
2018-09-12T00:08:27.254Z,1009.65
2018-09-12T00:09:07.777Z,1009.63
2018-09-12T00:09:48.297Z,1009.64
2018-09-12T00:10:28.809Z,1009.64
2018-09-12T00:11:09.321Z,1009.63
2018-09-12T00:11:49.867Z,1009.67
2018-09-12T00:12:30.393Z,1009.63
2018-09-12T00:13:10.914Z,1009.63
2018-09-12T00:13:51.435Z,1009.61
2018-09-12T00:14:31.946Z,1009.64
2018-09-12T00:15:12.488Z,1009.61
2018-09-12T00:15:52.995Z,1009.6
2018-09-12T00:16:33.516Z,1009.59
2018-09-12T00:17:14.040Z,1009.56
2018-09-12T00:17:54.571Z,1009.59
2018-09-12T00:18:35.081Z,1009.55
2018-09-12T00:19:15.596Z,1009.55
2018-09-12T00:19:56.123Z,1009.56
2018-09-12T00:20:36.634Z,1009.56
2018-09-12T00:21:17.172Z,1009.55
2018-09-12T00:21:57.673Z,1009.52
2018-09-12T00:22:38.192Z,1009.51
2018-09-12T00:23:18.720Z,1009.5
2018-09-12T00:23:59.253Z,1009.48
2018-09-12T00:24:39.790Z,1009.51
2018-09-12T00:25:20.482Z,1009.52
2018-09-12T00:26:01.002Z,1009.47
2018-09-12T00:26:41.521Z,1009.47
2018-09-12T00:27:22.089Z,1009.48
2018-09-12T00:28:02.597Z,1009.48
2018-09-12T00:28:43.123Z,1009.45
2018-09-12T00:29:23.865Z,1009.47
2018-09-12T00:30:04.213Z,1009.45
2018-09-12T00:30:44.733Z,1009.46
2018-09-12T00:31:25.263Z,1009.45
2018-09-12T00:32:05.800Z,1009.48
2018-09-12T00:32:46.297Z,1009.5
2018-09-12T00:33:26.814Z,1009.42
2018-09-12T00:34:07.341Z,1009.47
2018-09-12T00:34:47.864Z,1009.47
2018-09-12T00:35:28.384Z,1009.42
2018-09-12T00:37:46.797Z,1009.44
2018-09-12T00:38:27.311Z,1009.45
2018-09-12T00:39:07.801Z,1009.44
2018-09-12T00:39:48.327Z,1009.45
2018-09-12T00:40:28.848Z,1009.45
2018-09-12T00:41:09.355Z,1009.42
2018-09-12T00:41:49.876Z,1009.41
2018-09-12T00:42:30.398Z,1009.4
2018-09-12T00:43:10.930Z,1009.4
2018-09-12T00:43:51.431Z,1009.4
2018-09-12T00:44:31.940Z,1009.4
2018-09-12T00:45:12.460Z,1009.39
2018-09-12T00:45:52.977Z,1009.38
2018-09-12T00:46:33.497Z,1009.42
2018-09-12T00:47:14.025Z,1009.38
2018-09-12T00:47:54.529Z,1009.34
2018-09-12T00:48:35.078Z,1009.37
2018-09-12T00:49:15.597Z,1009.37
2018-09-12T00:49:56.391Z,1009.37
2018-09-12T00:50:36.933Z,1009.37
2018-09-12T00:51:17.453Z,1009.35
2018-09-12T00:51:57.954Z,1009.38
2018-09-12T00:52:38.480Z,1009.34
2018-09-12T00:53:18.986Z,1009.32
2018-09-12T00:53:59.505Z,1009.33
2018-09-12T00:54:40.041Z,1009.35
2018-09-12T00:55:20.556Z,1009.38
2018-09-12T00:56:01.110Z,1009.32
2018-09-12T00:56:41.594Z,1009.32
2018-09-12T00:57:22.101Z,1009.28
2018-09-12T00:58:02.637Z,1009.33
2018-09-12T00:58:43.140Z,1009.27
2018-09-12T00:59:23.840Z,1009.26
2018-09-12T01:00:04.402Z,1009.32
2018-09-12T01:00:44.921Z,1009.3
2018-09-12T01:01:25.436Z,1009.29
2018-09-12T01:02:05.962Z,1009.3
2018-09-12T01:02:46.478Z,1009.31
2018-09-12T01:03:26.985Z,1009.31
2018-09-12T01:04:07.505Z,1009.27
2018-09-12T01:04:48.043Z,1009.3
2018-09-12T01:05:28.556Z,1009.28
2018-09-12T01:06:09.103Z,1009.23
2018-09-12T01:06:49.708Z,1009.25
2018-09-12T01:07:30.265Z,1009.24
2018-09-12T01:08:10.800Z,1009.23
2018-09-12T01:08:51.335Z,1009.29
2018-09-12T01:09:31.851Z,1009.22
2018-09-12T01:10:12.369Z,1009.19
2018-09-12T01:10:52.897Z,1009.25
2018-09-12T01:11:33.416Z,1009.16
2018-09-12T01:12:13.928Z,1009.16
2018-09-12T01:12:54.444Z,1009.19
2018-09-12T01:13:34.968Z,1009.22
2018-09-12T01:14:15.493Z,1009.18
2018-09-12T01:14:56.027Z,1009.17
2018-09-12T01:15:36.568Z,1009.14
2018-09-12T01:16:17.104Z,1009.18
2018-09-12T01:16:57.626Z,1009.14
2018-09-12T01:17:38.135Z,1009.12
2018-09-12T01:18:18.675Z,1009.12
2018-09-12T01:18:59.180Z,1009.14
2018-09-12T01:19:39.696Z,1009.16
2018-09-12T01:20:20.222Z,1009.16
2018-09-12T01:21:00.747Z,1009.16
2018-09-12T01:21:41.253Z,1009.14
2018-09-12T01:22:21.776Z,1009.17
2018-09-12T01:23:02.316Z,1009.21
2018-09-12T01:23:42.842Z,1009.22
2018-09-12T01:24:23.346Z,1009.2
2018-09-12T01:25:03.863Z,1009.2
2018-09-12T01:25:44.390Z,1009.16
2018-09-12T01:26:24.908Z,1009.2
2018-09-12T01:27:05.419Z,1009.17
2018-09-12T01:27:45.956Z,1009.18
2018-09-12T01:28:26.460Z,1009.17
2018-09-12T01:29:07.006Z,1009.21
2018-09-12T01:29:47.568Z,1009.19
2018-09-12T01:30:28.103Z,1009.18
2018-09-12T01:31:08.606Z,1009.22
2018-09-12T01:31:49.114Z,1009.19
2018-09-12T01:32:29.648Z,1009.16
2018-09-12T01:33:10.171Z,1009.2
2018-09-12T01:33:50.693Z,1009.2
2018-09-12T01:34:31.201Z,1009.19
2018-09-12T01:35:11.717Z,1009.19
2018-09-12T01:35:52.236Z,1009.22
2018-09-12T01:36:32.745Z,1009.16
2018-09-12T01:37:13.260Z,1009.15
2018-09-12T01:37:53.793Z,1009.18
2018-09-12T01:38:34.295Z,1009.13
2018-09-12T01:39:14.816Z,1009.16
2018-09-12T01:39:55.334Z,1009.15
2018-09-12T01:40:35.846Z,1009.13
2018-09-12T01:41:16.369Z,1009.14
2018-09-12T01:41:56.885Z,1009.12
2018-09-12T01:42:37.405Z,1009.13
2018-09-12T01:43:17.916Z,1009.12
2018-09-12T01:43:58.439Z,1009.07
2018-09-12T01:44:38.950Z,1009.08
2018-09-12T01:45:19.460Z,1009.09
2018-09-12T01:46:00.010Z,1009.06
2018-09-12T01:46:40.527Z,1009.07
2018-09-12T01:47:21.056Z,1009
2018-09-12T01:48:01.575Z,1009
2018-09-12T01:48:42.090Z,1009.06
2018-09-12T01:49:22.601Z,1009.04
2018-09-12T01:50:03.120Z,1009.02
2018-09-12T01:50:43.645Z,1009.01
2018-09-12T01:51:24.538Z,1009.01
2018-09-12T01:52:04.737Z,1008.99
2018-09-12T01:52:45.286Z,1009.04
2018-09-12T01:53:25.798Z,1008.94
2018-09-12T01:54:06.309Z,1009.06
2018-09-12T01:54:46.809Z,1009.04
2018-09-12T01:55:27.322Z,1009.02
2018-09-12T01:56:07.848Z,1009.06
2018-09-12T01:56:48.352Z,1009
2018-09-12T01:57:28.867Z,1009.06
2018-09-12T01:58:09.377Z,1009.06
2018-09-12T01:58:49.905Z,1009.09
2018-09-12T01:59:30.423Z,1009.07
2018-09-12T02:00:10.944Z,1009.07
2018-09-12T02:00:51.455Z,1009.06
2018-09-12T02:01:31.975Z,1009.06
2018-09-12T02:02:12.495Z,1009.03
2018-09-12T02:02:53.018Z,1009.03
2018-09-12T02:03:33.527Z,1009.04
2018-09-12T02:04:14.031Z,1009.02
2018-09-12T02:04:54.541Z,1009.02
2018-09-12T02:05:35.057Z,1009
2018-09-12T02:06:15.582Z,1009.03
2018-09-12T02:06:56.080Z,1009.02
2018-09-12T02:07:36.611Z,1009.03
2018-09-12T02:08:17.133Z,1009.05
2018-09-12T02:08:57.666Z,1009
2018-09-12T02:09:38.226Z,1009.01
2018-09-12T02:10:18.756Z,1008.98
2018-09-12T02:10:59.275Z,1008.99
2018-09-12T02:11:39.941Z,1008.98
2018-09-12T02:12:20.455Z,1008.98
2018-09-12T02:13:00.976Z,1008.95
2018-09-12T02:13:41.486Z,1008.94
2018-09-12T02:14:22.002Z,1008.95
2018-09-12T02:15:02.526Z,1008.95
2018-09-12T02:15:43.054Z,1008.96
2018-09-12T02:16:23.534Z,1008.98
2018-09-12T02:17:04.059Z,1008.95
2018-09-12T02:17:44.569Z,1008.93
2018-09-12T02:18:25.088Z,1008.9
2018-09-12T02:19:05.602Z,1008.87
2018-09-12T02:19:46.112Z,1008.85
2018-09-12T02:20:26.657Z,1008.9
2018-09-12T02:21:07.196Z,1008.91
2018-09-12T02:21:47.722Z,1008.91
2018-09-12T02:22:28.239Z,1008.9
2018-09-12T02:23:08.761Z,1008.9
2018-09-12T02:23:49.275Z,1008.9
2018-09-12T02:24:29.816Z,1008.88
2018-09-12T02:25:10.338Z,1008.93
2018-09-12T02:25:50.861Z,1008.88
2018-09-12T02:26:31.378Z,1008.89
2018-09-12T02:27:11.900Z,1008.86
2018-09-12T02:27:52.430Z,1008.87
2018-09-12T02:28:32.979Z,1008.86
2018-09-12T02:29:13.509Z,1008.89
2018-09-12T02:29:54.029Z,1008.86
2018-09-12T02:30:34.553Z,1008.87
2018-09-12T02:31:15.077Z,1008.9
2018-09-12T02:31:55.597Z,1008.85
2018-09-12T02:32:36.105Z,1008.88
2018-09-12T02:33:16.624Z,1008.84
2018-09-12T02:33:57.171Z,1008.86
2018-09-12T02:34:37.660Z,1008.87
2018-09-12T02:35:18.214Z,1008.84
2018-09-12T02:35:58.703Z,1008.85
2018-09-12T02:36:39.235Z,1008.89
2018-09-12T02:37:19.748Z,1008.84
2018-09-12T02:38:00.281Z,1008.85
2018-09-12T02:38:40.804Z,1008.89
2018-09-12T02:39:21.313Z,1008.88
2018-09-12T02:40:01.832Z,1008.87
2018-09-12T02:40:42.359Z,1008.87
2018-09-12T02:41:22.940Z,1008.92
2018-09-12T02:42:03.509Z,1008.87
2018-09-12T02:42:44.034Z,1008.84
2018-09-12T02:43:24.556Z,1008.9
2018-09-12T02:44:05.079Z,1008.88
2018-09-12T02:44:45.596Z,1008.9
2018-09-12T02:45:26.114Z,1008.89
2018-09-12T02:46:06.636Z,1008.91
2018-09-12T02:46:47.157Z,1008.87
2018-09-12T02:47:27.688Z,1008.87
2018-09-12T02:48:08.187Z,1008.88
2018-09-12T02:48:48.707Z,1008.87
2018-09-12T02:49:29.233Z,1008.85
2018-09-12T02:50:09.752Z,1008.85
2018-09-12T02:50:50.258Z,1008.87
2018-09-12T02:51:30.780Z,1008.89
2018-09-12T02:52:11.303Z,1008.88
2018-09-12T02:52:51.823Z,1008.86
2018-09-12T02:53:32.367Z,1008.89
2018-09-12T02:54:12.890Z,1008.85
2018-09-12T02:54:53.400Z,1008.83
2018-09-12T02:55:33.911Z,1008.85
2018-09-12T02:56:14.423Z,1008.84
2018-09-12T02:56:54.938Z,1008.84
2018-09-12T02:57:35.456Z,1008.83
2018-09-12T02:58:15.967Z,1008.84
2018-09-12T02:58:56.473Z,1008.86
2018-09-12T02:59:36.994Z,1008.82
2018-09-12T03:00:17.509Z,1008.82
2018-09-12T03:00:58.028Z,1008.81
2018-09-12T03:01:38.631Z,1008.79
2018-09-12T03:02:19.140Z,1008.79
2018-09-12T03:02:59.642Z,1008.78
2018-09-12T03:03:40.157Z,1008.74
2018-09-12T03:04:20.685Z,1008.74
2018-09-12T03:05:01.199Z,1008.74
2018-09-12T03:05:41.749Z,1008.72
2018-09-12T03:06:22.288Z,1008.73
2018-09-12T03:07:02.807Z,1008.75
2018-09-12T03:07:43.355Z,1008.69
2018-09-12T03:08:23.847Z,1008.69
2018-09-12T03:09:04.462Z,1008.72
2018-09-12T03:09:44.983Z,1008.7
2018-09-12T03:10:25.499Z,1008.73
2018-09-12T03:11:06.049Z,1008.65
2018-09-12T03:11:46.528Z,1008.65
2018-09-12T03:12:27.047Z,1008.69
2018-09-12T03:13:07.583Z,1008.68
2018-09-12T03:13:48.104Z,1008.68
2018-09-12T03:14:28.625Z,1008.67
2018-09-12T03:15:09.161Z,1008.63
2018-09-12T03:15:49.682Z,1008.67
2018-09-12T03:16:30.192Z,1008.69
2018-09-12T03:17:10.707Z,1008.69
2018-09-12T03:17:51.215Z,1008.71
2018-09-12T03:18:31.730Z,1008.7
2018-09-12T03:19:12.241Z,1008.69
2018-09-12T03:19:52.764Z,1008.66
2018-09-12T03:20:33.289Z,1008.66
2018-09-12T03:21:13.841Z,1008.67
2018-09-12T03:21:54.368Z,1008.72
2018-09-12T03:22:34.852Z,1008.68
2018-09-12T03:23:15.444Z,1008.66
2018-09-12T03:23:55.949Z,1008.7
2018-09-12T03:24:36.480Z,1008.72
2018-09-12T03:25:17.009Z,1008.72
2018-09-12T03:25:57.526Z,1008.76
2018-09-12T03:26:38.069Z,1008.69
2018-09-12T03:27:18.581Z,1008.7
2018-09-12T03:27:59.218Z,1008.69
2018-09-12T03:28:39.741Z,1008.68
2018-09-12T03:29:20.265Z,1008.68
2018-09-12T03:30:00.790Z,1008.67
2018-09-12T03:30:41.308Z,1008.66
2018-09-12T03:31:21.821Z,1008.63
2018-09-12T03:32:02.527Z,1008.64
2018-09-12T03:32:43.045Z,1008.64
2018-09-12T03:33:23.910Z,1008.68
2018-09-12T03:34:04.472Z,1008.65
2018-09-12T03:34:44.995Z,1008.68
2018-09-12T03:35:25.510Z,1008.67
2018-09-12T03:36:06.032Z,1008.6
2018-09-12T03:36:46.556Z,1008.66
2018-09-12T03:37:27.074Z,1008.66
2018-09-12T03:38:07.612Z,1008.68
2018-09-12T03:38:48.126Z,1008.72
2018-09-12T03:39:28.669Z,1008.69
2018-09-12T03:40:09.179Z,1008.68
2018-09-12T03:40:49.687Z,1008.64
2018-09-12T03:41:30.206Z,1008.65
2018-09-12T03:42:10.724Z,1008.67
2018-09-12T03:42:51.231Z,1008.68
2018-09-12T03:43:31.750Z,1008.67
2018-09-12T03:44:12.277Z,1008.64
2018-09-12T03:44:52.809Z,1008.67
2018-09-12T03:45:33.332Z,1008.62
2018-09-12T03:46:13.861Z,1008.67
2018-09-12T03:46:54.373Z,1008.66
2018-09-12T03:47:34.907Z,1008.69
2018-09-12T03:48:15.440Z,1008.69
2018-09-12T03:48:55.985Z,1008.64
2018-09-12T03:49:36.487Z,1008.66
2018-09-12T03:50:17.146Z,1008.64
2018-09-12T03:50:57.836Z,1008.66
2018-09-12T03:51:38.342Z,1008.64
2018-09-12T03:52:18.868Z,1008.64
2018-09-12T03:52:59.383Z,1008.62
2018-09-12T03:53:39.924Z,1008.65
2018-09-12T03:54:20.462Z,1008.64
2018-09-12T03:55:00.963Z,1008.66
2018-09-12T03:55:41.491Z,1008.67
2018-09-12T03:56:22.008Z,1008.63
2018-09-12T03:57:02.530Z,1008.64
2018-09-12T03:57:43.049Z,1008.68
2018-09-12T03:58:23.580Z,1008.7
2018-09-12T03:59:04.098Z,1008.65
2018-09-12T03:59:44.617Z,1008.64
2018-09-12T04:00:25.143Z,1008.67
2018-09-12T04:01:05.678Z,1008.67
2018-09-12T04:01:46.196Z,1008.67
2018-09-12T04:02:26.725Z,1008.65
2018-09-12T04:03:07.237Z,1008.67
2018-09-12T04:03:47.770Z,1008.68
2018-09-12T04:04:28.292Z,1008.67
2018-09-12T04:05:08.827Z,1008.68
2018-09-12T04:05:49.405Z,1008.7
2018-09-12T04:06:29.920Z,1008.73
2018-09-12T04:07:10.440Z,1008.73
2018-09-12T04:07:51.101Z,1008.71
2018-09-12T04:08:31.609Z,1008.76
2018-09-12T04:09:12.123Z,1008.67
2018-09-12T04:09:52.644Z,1008.71
2018-09-12T04:10:33.178Z,1008.7
2018-09-12T04:11:13.712Z,1008.7
2018-09-12T04:11:54.223Z,1008.72
2018-09-12T04:12:34.757Z,1008.72
2018-09-12T04:13:15.279Z,1008.7
2018-09-12T04:13:55.819Z,1008.69
2018-09-12T04:14:36.317Z,1008.74
2018-09-12T04:15:16.837Z,1008.7
2018-09-12T04:15:57.336Z,1008.72
2018-09-12T04:16:37.855Z,1008.71
2018-09-12T04:17:18.376Z,1008.64
2018-09-12T04:17:58.893Z,1008.66
2018-09-12T04:18:39.429Z,1008.66
2018-09-12T04:19:19.944Z,1008.74
2018-09-12T04:20:00.486Z,1008.7
2018-09-12T04:20:41.028Z,1008.66
2018-09-12T04:21:21.589Z,1008.68
2018-09-12T04:22:02.088Z,1008.66
2018-09-12T04:22:42.579Z,1008.67
2018-09-12T04:23:23.091Z,1008.66
2018-09-12T04:24:03.621Z,1008.67
2018-09-12T04:24:44.158Z,1008.64
2018-09-12T04:25:24.685Z,1008.7
2018-09-12T04:26:05.195Z,1008.64
2018-09-12T04:26:45.709Z,1008.63
2018-09-12T04:27:26.248Z,1008.71
2018-09-12T04:28:06.765Z,1008.69
2018-09-12T04:28:47.293Z,1008.67
2018-09-12T04:29:27.800Z,1008.66
2018-09-12T04:30:08.315Z,1008.67
2018-09-12T04:30:48.855Z,1008.65
2018-09-12T04:31:29.364Z,1008.62
2018-09-12T04:32:09.879Z,1008.64
2018-09-12T04:32:50.409Z,1008.61
2018-09-12T04:33:30.930Z,1008.6
2018-09-12T04:34:11.448Z,1008.59
2018-09-12T04:34:51.980Z,1008.65
2018-09-12T04:35:32.517Z,1008.62
2018-09-12T04:36:13.016Z,1008.63
2018-09-12T04:36:53.593Z,1008.61
2018-09-12T04:37:34.113Z,1008.57
2018-09-12T04:38:14.640Z,1008.6
2018-09-12T04:38:55.169Z,1008.58
2018-09-12T04:39:35.691Z,1008.65
2018-09-12T04:40:16.208Z,1008.59
2018-09-12T04:40:56.736Z,1008.6
2018-09-12T04:41:37.243Z,1008.62
2018-09-12T04:42:17.760Z,1008.6
2018-09-12T04:42:58.284Z,1008.61
2018-09-12T04:43:38.798Z,1008.62
2018-09-12T04:44:19.310Z,1008.58
2018-09-12T04:44:59.831Z,1008.61
2018-09-12T04:45:40.344Z,1008.59
2018-09-12T04:46:20.864Z,1008.6
2018-09-12T04:47:01.392Z,1008.6
2018-09-12T04:47:41.915Z,1008.65
2018-09-12T04:48:22.475Z,1008.61
2018-09-12T04:49:02.952Z,1008.63
2018-09-12T04:49:43.461Z,1008.6
2018-09-12T04:50:23.966Z,1008.64
2018-09-12T04:51:04.496Z,1008.61
2018-09-12T04:51:45.035Z,1008.66
2018-09-12T04:52:25.555Z,1008.62
2018-09-12T04:53:06.069Z,1008.64
2018-09-12T04:53:46.586Z,1008.64
2018-09-12T04:54:27.118Z,1008.66
2018-09-12T04:55:07.630Z,1008.65
2018-09-12T04:55:48.163Z,1008.68
2018-09-12T04:56:28.703Z,1008.7
2018-09-12T04:57:09.225Z,1008.69
2018-09-12T04:57:49.740Z,1008.73
2018-09-12T04:58:30.373Z,1008.69
2018-09-12T04:59:10.894Z,1008.7
2018-09-12T04:59:51.458Z,1008.63
2018-09-12T05:00:31.914Z,1008.66
2018-09-12T05:01:12.446Z,1008.67
2018-09-12T05:01:52.974Z,1008.65
2018-09-12T05:02:33.485Z,1008.67
2018-09-12T05:03:14.004Z,1008.6
2018-09-12T05:03:54.532Z,1008.6
2018-09-12T05:04:35.072Z,1008.59
2018-09-12T05:05:15.605Z,1008.61
2018-09-12T05:05:56.136Z,1008.6
2018-09-12T05:06:36.652Z,1008.69
2018-09-12T05:07:17.182Z,1008.65
2018-09-12T05:07:57.685Z,1008.66
2018-09-12T05:08:38.252Z,1008.64
2018-09-12T05:09:18.729Z,1008.64
2018-09-12T05:09:59.273Z,1008.65
2018-09-12T05:10:39.911Z,1008.65
2018-09-12T05:11:20.447Z,1008.65
2018-09-12T05:12:00.970Z,1008.66
2018-09-12T05:12:41.499Z,1008.62
2018-09-12T05:13:22.035Z,1008.65
2018-09-12T05:14:02.558Z,1008.65
2018-09-12T05:14:43.070Z,1008.61
2018-09-12T05:15:23.590Z,1008.61
2018-09-12T05:16:04.187Z,1008.65
2018-09-12T05:16:44.781Z,1008.65
2018-09-12T05:17:25.164Z,1008.66
2018-09-12T05:18:05.651Z,1008.63
2018-09-12T05:18:46.181Z,1008.67
2018-09-12T05:19:26.696Z,1008.67
2018-09-12T05:20:07.212Z,1008.7
2018-09-12T05:20:47.709Z,1008.72
2018-09-12T05:21:28.238Z,1008.69
2018-09-12T05:22:08.804Z,1008.64
2018-09-12T05:22:49.290Z,1008.72
2018-09-12T05:23:29.812Z,1008.67
2018-09-12T05:24:10.309Z,1008.68
2018-09-12T05:24:50.859Z,1008.68
2018-09-12T05:25:31.367Z,1008.7
2018-09-12T05:26:11.893Z,1008.7
2018-09-12T05:26:52.408Z,1008.71
2018-09-12T05:27:32.975Z,1008.68
2018-09-12T05:28:13.463Z,1008.62
2018-09-12T05:28:53.985Z,1008.67
2018-09-12T05:29:34.509Z,1008.68
2018-09-12T05:30:15.024Z,1008.63
2018-09-12T05:30:55.551Z,1008.66
2018-09-12T05:31:36.042Z,1008.62
2018-09-12T05:32:16.569Z,1008.65
2018-09-12T05:32:57.115Z,1008.62
2018-09-12T05:33:37.636Z,1008.62
2018-09-12T05:34:18.170Z,1008.61
2018-09-12T05:34:58.694Z,1008.62
2018-09-12T05:35:39.218Z,1008.6
2018-09-12T05:36:19.779Z,1008.62
2018-09-12T05:37:00.327Z,1008.59
2018-09-12T05:37:40.834Z,1008.63
2018-09-12T05:38:21.347Z,1008.64
2018-09-12T05:39:01.866Z,1008.61
2018-09-12T05:39:42.396Z,1008.63
2018-09-12T05:40:22.952Z,1008.63
2018-09-12T05:41:03.499Z,1008.58
2018-09-12T05:41:44.019Z,1008.59
2018-09-12T05:42:24.546Z,1008.6
2018-09-12T05:43:05.061Z,1008.6
2018-09-12T05:43:45.569Z,1008.62
2018-09-12T05:44:26.150Z,1008.64
2018-09-12T05:45:06.670Z,1008.6
2018-09-12T05:45:47.190Z,1008.63
2018-09-12T05:46:27.786Z,1008.62
2018-09-12T05:47:08.278Z,1008.62
2018-09-12T05:47:48.826Z,1008.67
2018-09-12T05:48:29.351Z,1008.63
2018-09-12T05:49:09.858Z,1008.67
2018-09-12T05:49:50.391Z,1008.63
2018-09-12T05:50:30.951Z,1008.64
2018-09-12T05:51:11.488Z,1008.68
2018-09-12T05:51:52.005Z,1008.61
2018-09-12T05:52:32.532Z,1008.64
2018-09-12T05:53:13.031Z,1008.66
2018-09-12T05:53:53.547Z,1008.63
2018-09-12T05:54:34.079Z,1008.68
2018-09-12T05:55:14.786Z,1008.63
2018-09-12T05:55:55.325Z,1008.65
2018-09-12T05:56:35.837Z,1008.71
2018-09-12T05:57:16.352Z,1008.72
2018-09-12T05:57:56.869Z,1008.67
2018-09-12T05:58:37.378Z,1008.67
2018-09-12T05:59:17.913Z,1008.69
2018-09-12T05:59:58.444Z,1008.7
2018-09-12T06:00:38.975Z,1008.7
2018-09-12T06:01:19.510Z,1008.71
2018-09-12T06:02:00.026Z,1008.71
2018-09-12T06:02:40.539Z,1008.67
2018-09-12T06:03:21.067Z,1008.68
2018-09-12T06:04:01.578Z,1008.67
2018-09-12T06:04:42.090Z,1008.7
2018-09-12T06:05:22.620Z,1008.68
2018-09-12T06:06:03.179Z,1008.72
2018-09-12T06:06:43.795Z,1008.69
2018-09-12T06:07:24.271Z,1008.73
2018-09-12T06:08:04.788Z,1008.72
2018-09-12T06:08:45.319Z,1008.7
2018-09-12T06:09:25.863Z,1008.69
2018-09-12T06:10:06.400Z,1008.69
2018-09-12T06:10:46.907Z,1008.67
2018-09-12T06:11:27.439Z,1008.66
2018-09-12T06:12:07.952Z,1008.68
2018-09-12T06:12:48.487Z,1008.68
2018-09-12T06:13:29.032Z,1008.72
2018-09-12T06:14:09.619Z,1008.69
2018-09-12T06:14:50.074Z,1008.67
2018-09-12T06:15:30.602Z,1008.74
2018-09-12T06:16:11.135Z,1008.73
2018-09-12T06:16:51.686Z,1008.71
2018-09-12T06:17:32.209Z,1008.71
2018-09-12T06:18:12.724Z,1008.73
2018-09-12T06:18:53.241Z,1008.74
2018-09-12T06:19:33.778Z,1008.75
2018-09-12T06:20:14.279Z,1008.74
2018-09-12T06:20:54.868Z,1008.81
2018-09-12T06:21:35.685Z,1008.77
2018-09-12T06:22:15.996Z,1008.78
2018-09-12T06:22:56.502Z,1008.77
2018-09-12T06:23:37.121Z,1008.78
2018-09-12T06:24:17.509Z,1008.75
2018-09-12T06:24:58.009Z,1008.77
2018-09-12T06:25:38.528Z,1008.76
2018-09-12T06:26:19.043Z,1008.74
2018-09-12T06:26:59.585Z,1008.74
2018-09-12T06:27:40.094Z,1008.78
2018-09-12T06:28:20.619Z,1008.76
2018-09-12T06:29:01.143Z,1008.76
2018-09-12T06:29:41.659Z,1008.75
2018-09-12T06:30:22.184Z,1008.73
2018-09-12T06:31:02.689Z,1008.76
2018-09-12T06:31:43.213Z,1008.72
2018-09-12T06:32:23.747Z,1008.73
2018-09-12T06:33:04.291Z,1008.69
2018-09-12T06:33:44.796Z,1008.73
2018-09-12T06:34:25.326Z,1008.74
2018-09-12T06:35:05.851Z,1008.75
2018-09-12T06:35:46.391Z,1008.75
2018-09-12T06:36:26.914Z,1008.75
2018-09-12T06:37:07.454Z,1008.69
2018-09-12T06:37:48.007Z,1008.76
2018-09-12T06:38:28.509Z,1008.76
2018-09-12T06:39:09.015Z,1008.76
2018-09-12T06:39:49.545Z,1008.74
2018-09-12T06:40:30.055Z,1008.72
2018-09-12T06:41:10.573Z,1008.74
2018-09-12T06:41:51.083Z,1008.76
2018-09-12T06:42:31.634Z,1008.72
2018-09-12T06:43:12.168Z,1008.72
2018-09-12T06:43:52.782Z,1008.71
2018-09-12T06:44:33.371Z,1008.7
2018-09-12T06:45:13.825Z,1008.75
2018-09-12T06:45:54.365Z,1008.72
2018-09-12T06:46:34.862Z,1008.72
2018-09-12T06:47:15.384Z,1008.75
2018-09-12T06:47:55.897Z,1008.75
2018-09-12T06:48:36.402Z,1008.73
2018-09-12T06:49:16.911Z,1008.72
2018-09-12T06:49:57.447Z,1008.69
2018-09-12T06:50:37.995Z,1008.68
2018-09-12T06:51:18.478Z,1008.67
2018-09-12T06:51:58.921Z,1008.7
2018-09-12T06:52:39.453Z,1008.68
2018-09-12T06:53:19.969Z,1008.67
2018-09-12T06:54:00.524Z,1008.63
2018-09-12T06:54:41.120Z,1008.68
2018-09-12T06:55:21.562Z,1008.65
2018-09-12T06:56:02.054Z,1008.65
2018-09-12T06:56:42.559Z,1008.66
2018-09-12T06:57:23.098Z,1008.63
2018-09-12T06:58:03.638Z,1008.69
2018-09-12T06:58:44.151Z,1008.7
2018-09-12T06:59:24.673Z,1008.69
2018-09-12T07:00:05.201Z,1008.64
2018-09-12T07:00:45.889Z,1008.68
2018-09-12T07:01:26.651Z,1008.65
2018-09-12T07:02:06.766Z,1008.69
2018-09-12T07:02:47.299Z,1008.69
2018-09-12T07:03:27.850Z,1008.69
2018-09-12T07:04:08.352Z,1008.68
2018-09-12T07:04:48.868Z,1008.69
2018-09-12T07:05:29.398Z,1008.7
2018-09-12T07:06:09.914Z,1008.7
2018-09-12T07:06:50.411Z,1008.69
2018-09-12T07:07:31.006Z,1008.7
2018-09-12T07:08:11.468Z,1008.66
2018-09-12T07:08:51.956Z,1008.72
2018-09-12T07:09:32.461Z,1008.7
2018-09-12T07:10:12.961Z,1008.69
2018-09-12T07:10:53.453Z,1008.76
2018-09-12T07:11:33.955Z,1008.73
2018-09-12T07:12:14.509Z,1008.76
2018-09-12T07:12:55.048Z,1008.72
2018-09-12T07:13:35.618Z,1008.73
2018-09-12T07:14:16.126Z,1008.72
2018-09-12T07:14:56.522Z,1008.71
2018-09-12T07:17:25.159Z,1008.76
2018-09-12T07:18:05.675Z,1008.77
2018-09-12T07:18:46.194Z,1008.73
2018-09-12T07:19:26.889Z,1008.75
2018-09-12T07:20:07.376Z,1008.74
2018-09-12T07:20:47.880Z,1008.74
2018-09-12T07:21:28.417Z,1008.73
2018-09-12T07:22:08.888Z,1008.76
2018-09-12T07:22:49.385Z,1008.75
2018-09-12T07:23:29.889Z,1008.77
2018-09-12T07:24:10.351Z,1008.79
2018-09-12T07:24:50.896Z,1008.78
2018-09-12T07:25:31.340Z,1008.84
2018-09-12T07:26:11.878Z,1008.79
2018-09-12T07:26:52.334Z,1008.83
2018-09-12T07:27:32.863Z,1008.78
2018-09-12T07:28:13.287Z,1008.78
2018-09-12T07:28:53.801Z,1008.83
2018-09-12T07:29:34.314Z,1008.81
2018-09-12T07:30:14.821Z,1008.77
2018-09-12T07:30:55.320Z,1008.75
2018-09-12T07:31:35.804Z,1008.77
2018-09-12T07:32:16.296Z,1008.78
2018-09-12T07:32:57.221Z,1008.76
2018-09-12T07:33:37.685Z,1008.73
2018-09-12T07:34:18.173Z,1008.71
2018-09-12T07:34:58.705Z,1008.71
2018-09-12T07:35:40.709Z,1008.69
2018-09-12T07:36:20.607Z,1008.71
2018-09-12T07:37:01.399Z,1008.75
2018-09-12T07:37:41.755Z,1008.74
2018-09-12T07:38:22.087Z,1008.72
2018-09-12T07:39:02.687Z,1008.73
2018-09-12T07:39:43.137Z,1008.74
2018-09-12T07:40:23.656Z,1008.7
2018-09-12T07:41:04.134Z,1008.7
2018-09-12T07:41:44.663Z,1008.73
2018-09-12T07:42:25.067Z,1008.72
2018-09-12T07:43:05.627Z,1008.71
2018-09-12T07:43:46.147Z,1008.69
2018-09-12T07:44:26.676Z,1008.7
2018-09-12T07:45:07.190Z,1008.72
2018-09-12T07:45:47.981Z,1008.71
2018-09-12T07:46:28.481Z,1008.72
2018-09-12T07:47:08.965Z,1008.75
2018-09-12T07:47:49.458Z,1008.77
2018-09-12T07:48:29.922Z,1008.72
2018-09-12T07:49:10.493Z,1008.74
2018-09-12T07:49:50.863Z,1008.74
2018-09-12T07:50:31.375Z,1008.71
2018-09-12T07:51:11.881Z,1008.72
2018-09-12T07:51:52.393Z,1008.69
2018-09-12T07:52:32.955Z,1008.72
2018-09-12T07:53:13.407Z,1008.72
2018-09-12T07:53:53.967Z,1008.75
2018-09-12T07:54:34.422Z,1008.75
2018-09-12T07:55:14.972Z,1008.74
2018-09-12T07:55:55.452Z,1008.72
2018-09-12T07:56:35.970Z,1008.74
2018-09-12T07:57:16.479Z,1008.72
2018-09-12T07:57:56.914Z,1008.75
2018-09-12T07:58:37.466Z,1008.76
2018-09-12T07:59:17.967Z,1008.8
2018-09-12T07:59:58.547Z,1008.83
2018-09-12T08:00:39.079Z,1008.81
2018-09-12T08:01:19.508Z,1008.81
2018-09-12T08:02:00.034Z,1008.82
2018-09-12T08:02:40.524Z,1008.81
2018-09-12T08:03:21.010Z,1008.76
2018-09-12T08:04:01.529Z,1008.76
2018-09-12T08:04:42.959Z,1008.78
2018-09-12T08:05:23.462Z,1008.77
2018-09-12T08:06:03.975Z,1008.69
2018-09-12T08:06:44.563Z,1008.69
2018-09-12T08:07:25.101Z,1008.71
2018-09-12T08:08:05.591Z,1008.72
2018-09-12T08:08:46.123Z,1008.72
2018-09-12T08:09:26.593Z,1008.7
2018-09-12T08:10:07.127Z,1008.7
2018-09-12T08:10:47.688Z,1008.65
2018-09-12T08:11:28.132Z,1008.68
2018-09-12T08:12:08.682Z,1008.64
2018-09-12T08:12:49.165Z,1008.63
2018-09-12T08:13:29.691Z,1008.66
2018-09-12T08:14:10.177Z,1008.64
2018-09-12T08:14:50.681Z,1008.7
2018-09-12T08:15:31.301Z,1008.68